Time;durP1;ratioP1;P1;durP2;ratioP2;P2;SDS_P1;SDS_P2;PMS_P1;PMS_P2;Temp;Humidity;BMP_temperature;BMP_pressure;BME280_temperature;BME280_humidity;BME280_pressure;Samples;Min_cycle;Max_cycle;Signal;HPM_P1;HPM_P2
2021/12/06 00:00:34;;;;;;;6.07;5.50;;;6.60;99.90;;;;;;2071051;28;20029;-71
2021/12/06 00:01:40;;;;;;;6.28;5.45;;;6.60;99.90;;;;;;2071646;28;20057;-71
2021/12/06 00:02:41;;;;;;;10.43;6.32;;;6.60;99.90;;;;;;2071028;28;20028;-71
2021/12/06 00:03:49;;;;;;;5.78;5.15;;;6.60;99.90;;;;;;2070519;28;20106;-71
2021/12/06 00:04:50;;;;;;;7.40;6.43;;;6.60;99.90;;;;;;2071464;28;20026;-71
2021/12/06 00:05:51;;;;;;;6.70;5.85;;;6.60;99.90;;;;;;2072145;28;20030;-71
2021/12/06 00:06:56;;;;;;;7.88;5.28;;;6.60;99.90;;;;;;2070991;28;20437;-71
2021/12/06 00:07:57;;;;;;;7.30;5.78;;;6.60;99.90;;;;;;2071071;28;20125;-71
2021/12/06 00:08:57;;;;;;;7.88;6.15;;;6.60;99.90;;;;;;2070969;28;20034;-71
2021/12/06 00:09:58;;;;;;;6.90;5.57;;;6.60;99.90;;;;;;2067658;28;20029;-71
2021/12/06 00:11:06;;;;;;;7.00;5.57;;;6.50;99.90;;;;;;2070699;28;20100;-71
2021/12/06 00:12:07;;;;;;;6.57;5.55;;;6.50;99.90;;;;;;2068487;28;20049;-71
2021/12/06 00:13:07;;;;;;;7.70;5.50;;;6.50;99.90;;;;;;2071026;28;20033;-71
2021/12/06 00:14:09;;;;;;;6.00;5.40;;;6.50;99.90;;;;;;2071429;28;20105;-71
2021/12/06 00:15:11;;;;;;;5.95;5.35;;;6.50;99.90;;;;;;2071026;28;20053;-71
2021/12/06 00:16:17;;;;;;;6.28;5.50;;;6.50;99.90;;;;;;2071247;28;20089;-71
2021/12/06 00:17:19;;;;;;;6.28;5.60;;;6.50;99.90;;;;;;2070408;28;20029;-71
2021/12/06 00:18:19;;;;;;;6.05;5.32;;;6.50;99.90;;;;;;2071227;28;20022;-71
2021/12/06 00:19:20;;;;;;;6.57;5.07;;;6.50;99.90;;;;;;2070915;28;20528;-71
2021/12/06 00:20:21;;;;;;;6.22;5.53;;;6.50;99.90;;;;;;2071010;28;20481;-71
2021/12/06 00:21:23;;;;;;;7.50;6.70;;;6.50;99.90;;;;;;2071025;28;20026;-71
2021/12/06 00:22:24;;;;;;;6.68;5.57;;;6.50;99.90;;;;;;2070954;28;20434;-71
2021/12/06 00:23:25;;;;;;;6.95;5.30;;;6.50;99.90;;;;;;2070590;28;20065;-71
2021/12/06 00:24:26;;;;;;;6.25;5.65;;;6.40;99.90;;;;;;2071321;28;20109;-71
2021/12/06 00:25:27;;;;;;;6.82;5.32;;;6.40;99.90;;;;;;2071251;28;20022;-71
2021/12/06 00:26:27;;;;;;;5.10;4.60;;;6.40;99.90;;;;;;2071086;28;20369;-71
2021/12/06 00:27:28;;;;;;;7.07;5.53;;;6.40;99.90;;;;;;2070173;28;20030;-71
2021/12/06 00:28:29;;;;;;;6.22;4.93;;;6.40;99.90;;;;;;2071117;28;20022;-71
2021/12/06 00:29:29;;;;;;;6.65;5.57;;;6.40;99.90;;;;;;2071227;28;20014;-71
2021/12/06 00:30:30;;;;;;;7.22;4.95;;;6.30;99.90;;;;;;2069660;28;20124;-71
2021/12/06 00:31:33;;;;;;;5.78;5.15;;;6.40;99.90;;;;;;2067329;28;20448;-71
2021/12/06 00:32:34;;;;;;;8.20;5.47;;;6.30;99.90;;;;;;2070281;28;20029;-71
2021/12/06 00:33:35;;;;;;;5.93;5.28;;;6.30;99.90;;;;;;2070389;28;20053;-70
2021/12/06 00:34:37;;;;;;;7.43;5.05;;;6.30;99.90;;;;;;2071183;28;20026;-70
2021/12/06 00:35:37;;;;;;;5.95;5.18;;;6.30;99.90;;;;;;2070599;28;20056;-70
2021/12/06 00:36:40;;;;;;;6.05;5.45;;;6.30;99.90;;;;;;2071153;28;20057;-70
2021/12/06 00:37:52;;;;;;;5.40;4.88;;;6.30;99.90;;;;;;2070480;28;20026;-70
2021/12/06 00:38:54;;;;;;;5.90;5.40;;;6.20;99.90;;;;;;2070738;28;20032;-70
2021/12/06 00:39:57;;;;;;;5.78;4.70;;;6.20;99.90;;;;;;2071005;28;20026;-70
2021/12/06 00:40:58;;;;;;;5.32;4.82;;;6.20;99.90;;;;;;2070897;28;20089;-70
2021/12/06 00:41:59;;;;;;;6.22;4.60;;;6.20;99.90;;;;;;2079730;28;20029;-70
2021/12/06 00:42:59;;;;;;;5.15;4.65;;;6.10;99.90;;;;;;2080096;28;20025;-70
2021/12/06 00:44:01;;;;;;;4.90;4.40;;;6.10;99.90;;;;;;2072556;28;20030;-70
2021/12/06 00:45:07;;;;;;;6.07;4.80;;;6.10;99.90;;;;;;2072432;28;20026;-70
2021/12/06 00:46:07;;;;;;;5.72;4.80;;;6.10;99.90;;;;;;2072307;28;20482;-70
2021/12/06 00:47:08;;;;;;;6.20;4.28;;;6.00;99.90;;;;;;2071837;28;20446;-70
2021/12/06 00:48:09;;;;;;;4.82;4.32;;;6.00;99.90;;;;;;2072126;28;20145;-70
2021/12/06 00:49:11;;;;;;;8.13;5.07;;;6.00;99.90;;;;;;2078618;28;20034;-70
2021/12/06 00:50:11;;;;;;;5.43;4.93;;;5.90;99.90;;;;;;2077738;28;20033;-70
2021/12/06 00:51:15;;;;;;;5.30;4.80;;;5.90;99.90;;;;;;2064534;28;20516;-70
2021/12/06 00:52:16;;;;;;;5.03;4.63;;;5.90;99.90;;;;;;2064910;28;20027;-70
2021/12/06 00:53:16;;;;;;;6.22;4.97;;;5.90;99.90;;;;;;2065124;28;20026;-70
2021/12/06 00:54:17;;;;;;;5.25;4.75;;;5.90;99.90;;;;;;2072837;28;20037;-70
2021/12/06 00:55:20;;;;;;;6.80;4.32;;;5.90;99.90;;;;;;2072444;28;20105;-70
2021/12/06 00:56:20;;;;;;;4.80;4.30;;;5.80;99.90;;;;;;2072718;28;20018;-70
2021/12/06 00:57:21;;;;;;;5.30;4.78;;;5.80;99.90;;;;;;2071583;28;20022;-70
2021/12/06 00:58:22;;;;;;;7.43;4.68;;;5.80;99.90;;;;;;2072645;28;20022;-70
2021/12/06 00:59:22;;;;;;;5.85;4.45;;;5.80;99.90;;;;;;2072170;28;20096;-70
2021/12/06 01:00:34;;;;;;;5.28;4.30;;;5.70;99.90;;;;;;2072516;28;20022;-70
2021/12/06 01:01:35;;;;;;;4.82;4.43;;;5.70;99.90;;;;;;2072417;28;20390;-70
2021/12/06 01:02:35;;;;;;;4.93;4.45;;;5.70;99.90;;;;;;2072004;28;20096;-69
2021/12/06 01:03:38;;;;;;;5.57;4.50;;;5.70;99.90;;;;;;2071339;28;20026;-70
2021/12/06 01:04:41;;;;;;;4.80;4.40;;;5.70;99.90;;;;;;2072440;28;20025;-70
2021/12/06 01:05:43;;;;;;;6.38;4.63;;;5.60;99.90;;;;;;2072271;28;20026;-70
2021/12/06 01:06:43;;;;;;;6.00;4.80;;;5.60;99.90;;;;;;2074235;28;20018;-70
2021/12/06 01:07:44;;;;;;;5.00;4.50;;;5.60;99.90;;;;;;2071633;28;20467;-70
2021/12/06 01:08:44;;;;;;;5.95;4.78;;;5.60;99.90;;;;;;2072066;28;20026;-70
2021/12/06 01:09:45;;;;;;;4.75;4.28;;;5.50;99.90;;;;;;2070207;28;20112;-70
2021/12/06 01:10:48;;;;;;;5.68;4.18;;;5.50;99.90;;;;;;2070539;28;20034;-70
2021/12/06 01:11:49;;;;;;;7.38;4.80;;;5.50;99.90;;;;;;2071911;28;20026;-70
2021/12/06 01:12:50;;;;;;;4.70;4.30;;;5.50;99.90;;;;;;2072446;28;20033;-70
2021/12/06 01:13:51;;;;;;;5.05;4.43;;;5.40;99.90;;;;;;2072100;28;20026;-70
2021/12/06 01:14:52;;;;;;;5.25;4.47;;;5.40;99.90;;;;;;2072427;28;20061;-70
2021/12/06 01:15:52;;;;;;;5.35;4.45;;;5.40;99.90;;;;;;2072553;28;20026;-70
2021/12/06 01:16:53;;;;;;;5.13;4.25;;;5.30;99.90;;;;;;2072500;28;20026;-70
2021/12/06 01:17:55;;;;;;;5.88;4.97;;;5.30;99.90;;;;;;2071578;28;20041;-69
2021/12/06 01:18:56;;;;;;;6.15;5.00;;;5.30;99.90;;;;;;2072180;28;20022;-69
2021/12/06 01:19:56;;;;;;;7.15;4.43;;;5.30;99.90;;;;;;2072132;28;20034;-69
2021/12/06 01:21:10;;;;;;;4.72;4.25;;;5.30;99.90;;;;;;2072307;28;20109;-69
2021/12/06 01:23:24;;;;;;;6.00;5.25;;;5.20;99.90;;;;;;2066608;28;20036;-69
2021/12/06 01:24:29;;;;;;;5.07;4.57;;;5.10;99.90;;;;;;2072356;28;20036;-69
2021/12/06 01:31:58;;;;;;;4.70;4.30;;;5.00;99.90;;;;;;2071294;28;20465;-70
2021/12/06 01:33:17;;;;;;;5.88;4.90;;;4.90;99.90;;;;;;2067044;28;20152;-70
2021/12/06 01:39:41;;;;;;;5.85;5.25;;;4.70;99.90;;;;;;2069563;28;20471;-69
2021/12/06 01:40:42;;;;;;;5.88;5.22;;;4.70;99.90;;;;;;2072092;28;20398;-69
2021/12/06 01:41:59;;;;;;;6.03;5.28;;;4.60;99.90;;;;;;2072696;28;20037;-69
2021/12/06 01:43:04;;;;;;;5.03;4.53;;;4.70;99.90;;;;;;2072533;28;20037;-69
2021/12/06 01:44:10;;;;;;;5.70;5.05;;;4.60;99.90;;;;;;2072390;28;20037;-69
2021/12/06 01:45:11;;;;;;;6.13;5.55;;;4.60;99.90;;;;;;2071865;28;20053;-69
2021/12/06 01:46:12;;;;;;;6.63;6.03;;;4.60;99.90;;;;;;2072472;28;20030;-69
2021/12/06 01:47:19;;;;;;;5.50;4.90;;;4.60;99.90;;;;;;2071720;28;20045;-69
2021/12/06 01:48:19;;;;;;;5.88;4.95;;;4.50;99.90;;;;;;2072695;28;20466;-69
2021/12/06 01:49:23;;;;;;;6.22;5.57;;;4.50;99.90;;;;;;2071975;28;20371;-69
2021/12/06 01:50:28;;;;;;;9.52;6.03;;;4.50;99.90;;;;;;2071845;28;20026;-69
2021/12/06 01:51:29;;;;;;;5.63;5.03;;;4.50;99.90;;;;;;2069637;28;20076;-69
2021/12/06 01:52:36;;;;;;;6.30;5.70;;;4.50;99.90;;;;;;2072225;28;20434;-69
2021/12/06 01:53:37;;;;;;;6.25;5.43;;;4.40;99.90;;;;;;2070785;28;20026;-69
2021/12/06 01:54:38;;;;;;;6.70;5.57;;;4.40;99.90;;;;;;2072284;28;20049;-69
2021/12/06 01:55:39;;;;;;;6.60;6.00;;;4.40;99.90;;;;;;2072046;28;20394;-69
2021/12/06 01:56:39;;;;;;;7.30;6.65;;;4.40;99.90;;;;;;2072528;28;20037;-69
2021/12/06 01:57:40;;;;;;;7.88;7.05;;;4.40;99.90;;;;;;2071370;28;20061;-69
2021/12/06 01:58:43;;;;;;;7.63;6.90;;;4.40;99.90;;;;;;2071912;28;20063;-69
2021/12/06 01:59:44;;;;;;;7.65;6.97;;;4.30;99.90;;;;;;2071954;28;20060;-69
2021/12/06 02:00:52;;;;;;;7.72;6.97;;;4.30;99.90;;;;;;2072174;28;20030;-69
2021/12/06 02:01:54;;;;;;;6.82;6.10;;;4.30;99.90;;;;;;2072176;28;20057;-69
2021/12/06 02:02:55;;;;;;;9.75;6.95;;;4.30;99.90;;;;;;2071903;28;20034;-69
2021/12/06 02:03:56;;;;;;;7.65;6.72;;;4.30;99.90;;;;;;2071603;28;20030;-69
2021/12/06 02:04:57;;;;;;;8.55;6.82;;;4.30;99.90;;;;;;2071366;28;20084;-69
2021/12/06 02:05:58;;;;;;;9.05;7.70;;;4.30;99.90;;;;;;2072022;28;20046;-69
2021/12/06 02:07:00;;;;;;;9.15;7.13;;;4.20;99.90;;;;;;2072872;28;20048;-69
2021/12/06 02:08:01;;;;;;;7.43;6.72;;;4.20;99.90;;;;;;2071505;28;20022;-69
2021/12/06 02:09:06;;;;;;;9.02;7.78;;;4.20;99.90;;;;;;2071841;28;20065;-69
2021/12/06 02:10:08;;;;;;;8.02;6.63;;;4.20;99.90;;;;;;2067173;28;20046;-69
2021/12/06 02:11:09;;;;;;;6.93;6.38;;;4.20;99.90;;;;;;2071683;28;20098;-69
2021/12/06 02:12:11;;;;;;;7.43;6.70;;;4.20;99.90;;;;;;2071858;28;20513;-69
2021/12/06 02:13:12;;;;;;;8.90;7.43;;;4.20;99.90;;;;;;2071940;28;21643;-69
2021/12/06 02:15:42;;;;;;;7.35;6.65;;;4.10;99.90;;;;;;2072455;28;20776;-69
2021/12/06 02:18:13;;;;;;;9.13;7.10;;;4.10;99.90;;;;;;2071278;28;20026;-69
2021/12/06 02:19:18;;;;;;;8.88;7.15;;;4.00;99.90;;;;;;2071553;28;20021;-69
2021/12/06 02:20:26;;;;;;;8.35;7.55;;;4.00;99.90;;;;;;2071860;28;20447;-69
2021/12/06 02:21:32;;;;;;;12.38;7.93;;;4.00;99.90;;;;;;2072121;28;20018;-71
2021/12/06 02:22:36;;;;;;;10.20;7.80;;;4.00;99.90;;;;;;2071414;28;20040;-69
2021/12/06 02:23:37;;;;;;;9.02;7.65;;;4.00;99.90;;;;;;2077871;28;20481;-69
2021/12/06 02:24:38;;;;;;;9.00;8.07;;;4.00;99.90;;;;;;2074290;28;20386;-69
2021/12/06 02:25:39;;;;;;;9.90;8.10;;;3.90;99.90;;;;;;2071520;28;20390;-69
2021/12/06 02:26:41;;;;;;;10.70;8.15;;;4.00;99.90;;;;;;2071907;28;20078;-69
2021/12/06 02:27:43;;;;;;;9.98;7.75;;;3.90;99.90;;;;;;2073099;28;20026;-69
2021/12/06 02:28:44;;;;;;;12.50;8.15;;;3.90;99.90;;;;;;2072182;28;20022;-69
2021/12/06 02:29:46;;;;;;;12.98;8.43;;;3.90;99.90;;;;;;2072061;28;20022;-69
2021/12/06 02:30:47;;;;;;;11.20;8.32;;;3.90;99.90;;;;;;2072044;28;20026;-69
2021/12/06 02:31:47;;;;;;;12.52;9.25;;;3.90;99.90;;;;;;2071808;28;20034;-69
2021/12/06 02:32:49;;;;;;;8.57;7.68;;;3.80;99.90;;;;;;2071651;28;20383;-69
2021/12/06 02:33:50;;;;;;;9.70;7.68;;;3.80;99.90;;;;;;2071530;28;20030;-69
2021/12/06 02:34:55;;;;;;;10.05;7.90;;;3.80;99.90;;;;;;2071402;28;20048;-69
2021/12/06 02:35:56;;;;;;;10.07;8.55;;;3.80;99.90;;;;;;2067657;28;20032;-69
2021/12/06 02:36:56;;;;;;;12.57;8.45;;;3.80;99.90;;;;;;2069356;28;20076;-69
2021/12/06 02:37:57;;;;;;;15.32;10.15;;;3.80;99.90;;;;;;2078544;28;20575;-69
2021/12/06 02:38:58;;;;;;;13.77;11.38;;;3.80;99.90;;;;;;2071530;28;20060;-69
2021/12/06 02:40:01;;;;;;;11.98;10.07;;;3.80;99.90;;;;;;2071964;28;20045;-69
2021/12/06 02:41:02;;;;;;;11.07;9.40;;;3.70;99.90;;;;;;2071421;28;20033;-69
2021/12/06 02:42:04;;;;;;;13.18;10.60;;;3.70;99.90;;;;;;2071944;28;20025;-69
2021/12/06 02:43:07;;;;;;;12.75;9.07;;;3.70;99.90;;;;;;2071721;28;20568;-69
2021/12/06 02:44:08;;;;;;;11.43;8.68;;;3.70;99.90;;;;;;2069789;28;20053;-69
2021/12/06 02:45:09;;;;;;;13.50;9.98;;;3.70;99.90;;;;;;2071483;28;20084;-69
2021/12/06 02:46:10;;;;;;;11.65;9.85;;;3.70;99.90;;;;;;2071331;28;20076;-69
2021/12/06 02:47:11;;;;;;;13.70;10.52;;;3.70;99.90;;;;;;2070586;28;20034;-69
2021/12/06 02:48:13;;;;;;;14.52;9.85;;;3.60;99.90;;;;;;2071014;28;20072;-69
2021/12/06 02:49:14;;;;;;;12.07;9.60;;;3.60;99.90;;;;;;2071479;28;20038;-69
2021/12/06 02:50:15;;;;;;;11.80;9.40;;;3.60;99.90;;;;;;2071183;28;20030;-69
2021/12/06 02:51:16;;;;;;;17.35;10.07;;;3.60;99.90;;;;;;2071909;28;20563;-68
2021/12/06 02:52:17;;;;;;;10.75;8.35;;;3.60;99.90;;;;;;2071579;28;20064;-69
2021/12/06 02:53:20;;;;;;;11.57;9.80;;;3.60;99.90;;;;;;2071294;28;20026;-68
2021/12/06 02:54:22;;;;;;;14.70;11.18;;;3.50;99.90;;;;;;2071076;28;20052;-69
2021/12/06 02:55:37;;;;;;;12.45;9.88;;;3.60;99.90;;;;;;2071318;28;20156;-68
2021/12/06 02:58:02;;;;;;;12.63;10.63;;;3.50;99.90;;;;;;2071216;28;20034;-68
2021/12/06 02:59:07;;;;;;;12.30;9.63;;;3.50;99.90;;;;;;2071765;28;20458;-68
2021/12/06 03:00:10;;;;;;;17.52;9.70;;;3.50;99.90;;;;;;2071588;28;20040;-68
2021/12/06 03:01:22;;;;;;;14.10;10.77;;;3.40;99.90;;;;;;2071829;28;20076;-68
2021/12/06 03:02:22;;;;;;;13.50;10.30;;;3.50;99.90;;;;;;2069756;28;20017;-68
2021/12/06 03:03:23;;;;;;;14.40;10.20;;;3.40;99.90;;;;;;2071557;28;20125;-68
2021/12/06 03:04:24;;;;;;;14.07;11.00;;;3.40;99.90;;;;;;2071670;28;20025;-68
2021/12/06 03:05:25;;;;;;;12.48;11.10;;;3.40;99.90;;;;;;2071428;28;20033;-68
2021/12/06 03:06:27;;;;;;;12.48;11.00;;;3.40;99.90;;;;;;2071803;28;20026;-68
2021/12/06 03:07:28;;;;;;;14.05;10.52;;;3.40;99.90;;;;;;2071123;28;21003;-68
2021/12/06 03:08:49;;;;;;;13.63;9.88;;;3.40;99.90;;;;;;2071705;28;20041;-69
2021/12/06 03:09:52;;;;;;;;;;;3.30;99.90;;;;;;2069032;28;20113;-68
2021/12/06 03:10:53;;;;;;;12.25;9.25;;;3.30;99.90;;;;;;2070156;28;19913;-68
2021/12/06 03:11:58;;;;;;;12.55;9.98;;;3.20;99.90;;;;;;2071517;28;20108;-69
2021/12/06 03:12:59;;;;;;;14.05;10.60;;;3.30;99.90;;;;;;2071611;28;20024;-69
2021/12/06 03:14:00;;;;;;;15.40;11.48;;;3.30;99.90;;;;;;2071458;28;20489;-69
2021/12/06 03:15:05;;;;;;;15.90;10.90;;;3.20;99.90;;;;;;2071811;28;20053;-68
2021/12/06 03:16:06;;;;;;;14.68;11.18;;;3.20;99.90;;;;;;2071289;28;20034;-68
2021/12/06 03:17:10;;;;;;;14.25;10.52;;;3.20;99.90;;;;;;2071671;28;20529;-68
2021/12/06 03:18:10;;;;;;;12.85;11.38;;;3.20;99.90;;;;;;2070670;28;20029;-69
2021/12/06 03:19:11;;;;;;;15.50;12.13;;;3.20;99.90;;;;;;2070478;28;20029;-68
2021/12/06 03:20:14;;;;;;;15.05;10.93;;;3.20;99.90;;;;;;2070676;28;20072;-68
2021/12/06 03:21:16;;;;;;;12.35;11.05;;;3.20;99.90;;;;;;2071686;28;20475;-68
2021/12/06 03:22:18;;;;;;;17.60;11.65;;;3.20;99.90;;;;;;2071222;28;20028;-68
2021/12/06 03:23:18;;;;;;;14.50;12.32;;;3.20;99.90;;;;;;2063217;28;20487;-68
2021/12/06 03:24:19;;;;;;;15.68;11.05;;;3.20;99.90;;;;;;2066703;28;20530;-68
2021/12/06 03:25:20;;;;;;;12.77;11.02;;;3.20;99.90;;;;;;2071462;28;20489;-68
2021/12/06 03:26:20;;;;;;;15.30;12.18;;;3.20;99.90;;;;;;2071068;28;20374;-68
2021/12/06 03:27:21;;;;;;;15.60;11.48;;;3.10;99.90;;;;;;2070732;28;20088;-68
2021/12/06 03:28:22;;;;;;;16.83;12.35;;;3.20;99.90;;;;;;2071424;28;20112;-68
2021/12/06 03:29:23;;;;;;;15.15;12.10;;;3.10;99.90;;;;;;2071990;28;20369;-68
2021/12/06 03:30:23;;;;;;;14.65;11.65;;;3.20;99.90;;;;;;2071174;28;20054;-68
2021/12/06 03:31:25;;;;;;;15.02;12.27;;;3.20;99.90;;;;;;2073002;28;20113;-68
2021/12/06 03:32:26;;;;;;;14.10;12.18;;;3.10;99.90;;;;;;2071850;28;20057;-68
2021/12/06 03:33:26;;;;;;;14.60;11.85;;;3.10;99.90;;;;;;2072134;28;20022;-68
2021/12/06 03:34:28;;;;;;;13.35;11.65;;;3.10;99.90;;;;;;2071600;28;20058;-68
2021/12/06 03:35:29;;;;;;;17.98;11.35;;;3.10;99.90;;;;;;2071193;28;20029;-68
2021/12/06 03:36:33;;;;;;;14.18;11.48;;;3.10;99.90;;;;;;2071145;28;20053;-68
2021/12/06 03:37:34;;;;;;;15.15;11.50;;;3.10;99.90;;;;;;2071181;28;20029;-69
2021/12/06 03:38:36;;;;;;;14.95;12.05;;;3.10;99.90;;;;;;2071743;28;20059;-69
2021/12/06 03:39:41;;;;;;;12.63;10.50;;;3.10;99.90;;;;;;2072025;28;20041;-68
2021/12/06 03:40:41;;;;;;;16.25;11.57;;;3.10;99.90;;;;;;2069265;28;20022;-68
2021/12/06 03:41:42;;;;;;;16.65;12.43;;;3.10;99.90;;;;;;2071687;28;20101;-68
2021/12/06 03:42:43;;;;;;;13.98;11.23;;;3.00;99.90;;;;;;2071128;28;20014;-68
2021/12/06 03:43:44;;;;;;;11.98;10.75;;;3.00;99.90;;;;;;2070915;28;20045;-69
2021/12/06 03:44:45;;;;;;;13.15;11.23;;;3.00;99.90;;;;;;2071173;28;20036;-68
2021/12/06 03:45:46;;;;;;;15.98;12.65;;;3.00;99.90;;;;;;2071716;28;20120;-68
2021/12/06 03:46:49;;;;;;;13.25;11.85;;;3.00;99.90;;;;;;2071490;28;20034;-68
2021/12/06 03:47:50;;;;;;;13.32;10.98;;;3.00;99.90;;;;;;2071265;28;20018;-68
2021/12/06 03:48:50;;;;;;;13.43;11.43;;;3.00;99.90;;;;;;2071489;28;20034;-68
2021/12/06 03:49:51;;;;;;;15.45;12.00;;;3.00;99.90;;;;;;2071419;28;20021;-68
2021/12/06 03:50:52;;;;;;;14.82;11.75;;;3.00;99.90;;;;;;2071013;28;20021;-68
2021/12/06 03:51:53;;;;;;;13.82;11.38;;;3.00;99.90;;;;;;2071488;28;20117;-68
2021/12/06 03:52:54;;;;;;;18.80;11.90;;;3.00;99.90;;;;;;2071585;28;20037;-68
2021/12/06 03:53:54;;;;;;;16.80;11.63;;;3.00;99.90;;;;;;2070382;28;20022;-68
2021/12/06 03:54:56;;;;;;;16.45;12.77;;;2.90;99.90;;;;;;2062602;28;20131;-69
2021/12/06 03:55:57;;;;;;;15.77;11.18;;;2.90;99.90;;;;;;2069811;28;20029;-68
2021/12/06 03:56:58;;;;;;;15.40;11.07;;;2.90;99.90;;;;;;2071601;28;20064;-68
2021/12/06 03:57:59;;;;;;;12.80;10.88;;;2.90;99.90;;;;;;2074388;28;20496;-68
2021/12/06 03:59:00;;;;;;;15.10;12.57;;;2.90;99.90;;;;;;2072553;28;20076;-68
2021/12/06 04:00:02;;;;;;;15.32;12.60;;;2.90;99.90;;;;;;2071045;28;20386;-68
2021/12/06 04:01:04;;;;;;;12.98;11.55;;;2.90;99.90;;;;;;2073750;28;20084;-68
2021/12/06 04:02:05;;;;;;;16.23;12.50;;;2.90;99.90;;;;;;2072698;28;20029;-68
2021/12/06 04:03:10;;;;;;;14.02;12.40;;;2.90;99.90;;;;;;2070786;28;20030;-68
2021/12/06 04:04:11;;;;;;;13.52;11.35;;;2.90;99.90;;;;;;2070645;28;20025;-68
2021/12/06 04:05:12;;;;;;;16.23;11.90;;;2.80;99.90;;;;;;2072841;28;20029;-68
2021/12/06 04:06:14;;;;;;;12.45;11.05;;;2.90;99.90;;;;;;2078879;28;20026;-68
2021/12/06 04:07:15;;;;;;;14.05;12.35;;;2.80;99.90;;;;;;2071668;28;20071;-68
2021/12/06 04:08:16;;;;;;;15.88;12.68;;;2.90;99.90;;;;;;2070506;28;20033;-68
2021/12/06 04:09:17;;;;;;;13.68;11.13;;;2.80;99.90;;;;;;2071698;28;20026;-68
2021/12/06 04:10:17;;;;;;;13.50;12.05;;;2.80;99.90;;;;;;2066911;28;20018;-68
2021/12/06 04:11:18;;;;;;;13.50;11.70;;;2.80;99.90;;;;;;2071348;28;20036;-68
2021/12/06 04:12:19;;;;;;;13.50;11.65;;;2.80;99.90;;;;;;2071287;28;20559;-68
2021/12/06 04:13:19;;;;;;;17.00;12.68;;;2.80;99.90;;;;;;2071607;28;20025;-68
2021/12/06 04:14:20;;;;;;;17.92;13.38;;;2.80;99.90;;;;;;2071809;28;20026;-68
2021/12/06 04:15:21;;;;;;;13.32;11.85;;;2.80;99.90;;;;;;2071491;28;20034;-68
2021/12/06 04:16:21;;;;;;;13.75;11.85;;;2.80;99.90;;;;;;2071118;28;20030;-69
2021/12/06 04:17:22;;;;;;;15.98;12.75;;;2.70;99.90;;;;;;2080379;28;20025;-68
2021/12/06 04:18:23;;;;;;;15.40;11.93;;;2.70;99.90;;;;;;2080443;28;20286;-68
2021/12/06 04:19:24;;;;;;;13.30;11.77;;;2.70;99.90;;;;;;2072641;28;20025;-68
2021/12/06 04:20:24;;;;;;;14.40;12.85;;;2.70;99.90;;;;;;2072582;28;20367;-68
2021/12/06 04:21:26;;;;;;;14.48;12.38;;;2.70;99.90;;;;;;2073132;28;20080;-68
2021/12/06 04:22:27;;;;;;;13.65;12.27;;;2.70;99.90;;;;;;2072837;28;20483;-68
2021/12/06 04:23:27;;;;;;;14.23;11.48;;;2.70;99.90;;;;;;2073061;28;20473;-68
2021/12/06 04:24:28;;;;;;;12.70;11.40;;;2.70;99.90;;;;;;2072963;28;20038;-68
2021/12/06 04:25:29;;;;;;;13.55;12.18;;;2.70;99.90;;;;;;2073086;28;20049;-68
2021/12/06 04:26:30;;;;;;;15.68;11.98;;;2.60;99.90;;;;;;2072512;28;20030;-68
2021/12/06 04:27:31;;;;;;;14.10;12.07;;;2.60;99.90;;;;;;2072154;28;20076;-68
2021/12/06 04:28:34;;;;;;;15.23;11.85;;;2.60;99.90;;;;;;2080203;28;20017;-68
2021/12/06 04:29:35;;;;;;;11.93;10.73;;;2.60;99.90;;;;;;2079775;28;20445;-68
2021/12/06 04:30:38;;;;;;;12.45;11.15;;;2.60;99.90;;;;;;2072700;28;20026;-68
2021/12/06 04:31:49;;;;;;;14.65;11.73;;;2.60;99.90;;;;;;2081277;28;20504;-68
2021/12/06 04:32:52;;;;;;;13.43;12.02;;;2.60;99.90;;;;;;2074263;28;20037;-68
2021/12/06 04:33:53;;;;;;;13.90;12.20;;;2.60;99.90;;;;;;2070234;28;20037;-68
2021/12/06 04:34:54;;;;;;;14.25;12.68;;;2.60;99.90;;;;;;2072222;28;20495;-68
2021/12/06 04:35:54;;;;;;;15.55;13.07;;;2.50;99.90;;;;;;2072039;28;20033;-69
2021/12/06 04:36:55;;;;;;;15.38;12.32;;;2.60;99.90;;;;;;2072107;28;20686;-68
2021/12/06 04:37:56;;;;;;;16.10;12.38;;;2.50;99.90;;;;;;2079681;28;20112;-68
2021/12/06 04:38:57;;;;;;;15.70;12.30;;;2.50;99.90;;;;;;2072945;28;20034;-68
2021/12/06 04:39:57;;;;;;;17.17;13.25;;;2.50;99.90;;;;;;2072705;28;20065;-68
2021/12/06 04:40:58;;;;;;;14.90;13.30;;;2.50;99.90;;;;;;2072817;28;20498;-68
2021/12/06 04:41:59;;;;;;;16.45;13.50;;;2.50;99.90;;;;;;2072760;28;20034;-68
2021/12/06 04:42:59;;;;;;;13.43;12.02;;;2.50;99.90;;;;;;2072612;28;20057;-68
2021/12/06 04:44:00;;;;;;;14.23;12.82;;;2.50;99.90;;;;;;2072416;28;20053;-68
2021/12/06 04:45:01;;;;;;;14.15;12.45;;;2.50;99.90;;;;;;2072372;28;20263;-68
2021/12/06 04:46:02;;;;;;;15.57;12.70;;;2.50;99.90;;;;;;2080685;28;20101;-68
2021/12/06 04:47:04;;;;;;;16.67;12.15;;;2.40;99.90;;;;;;2072829;28;20435;-68
2021/12/06 04:48:07;;;;;;;14.27;12.80;;;2.50;99.90;;;;;;2080250;28;20180;-68
2021/12/06 04:49:07;;;;;;;14.25;12.18;;;2.40;99.90;;;;;;2064101;28;20023;-68
2021/12/06 04:50:10;;;;;;;14.98;13.27;;;2.40;99.90;;;;;;2063773;28;20033;-68
2021/12/06 04:51:11;;;;;;;15.45;13.32;;;2.40;99.90;;;;;;2072995;28;20462;-68
2021/12/06 04:52:14;;;;;;;16.52;13.98;;;2.40;99.90;;;;;;2072344;28;20112;-68
2021/12/06 04:53:19;;;;;;;16.23;14.13;;;2.40;99.90;;;;;;2072642;28;20092;-68
2021/12/06 04:54:24;;;;;;;20.80;13.88;;;2.40;99.90;;;;;;2072542;28;20479;-68
2021/12/06 04:55:35;;;;;;;16.30;13.30;;;2.40;99.90;;;;;;2072872;28;20624;-68
2021/12/06 04:56:40;;;;;;;17.35;12.63;;;2.40;99.90;;;;;;2072962;28;20068;-68
2021/12/06 04:57:44;;;;;;;15.07;12.23;;;2.30;99.90;;;;;;2071847;28;20071;-69
2021/12/06 04:59:06;;;;;;;15.90;12.75;;;2.30;99.90;;;;;;2072526;28;20560;-68
2021/12/06 05:00:15;;;;;;;13.95;11.98;;;2.30;99.90;;;;;;2072723;28;20426;-68
2021/12/06 05:01:21;;;;;;;15.50;13.23;;;2.20;99.90;;;;;;2072338;28;20018;-68
2021/12/06 05:02:26;;;;;;;14.10;12.55;;;2.30;99.90;;;;;;2071936;28;20026;-69
2021/12/06 05:03:27;;;;;;;14.20;12.35;;;2.20;99.90;;;;;;2073201;28;20026;-68
2021/12/06 05:04:31;;;;;;;17.88;14.27;;;2.20;99.90;;;;;;2072315;28;20044;-68
2021/12/06 05:05:42;;;;;;;15.63;13.70;;;2.20;99.90;;;;;;2079186;28;20032;-68
2021/12/06 05:06:47;;;;;;;16.27;12.65;;;2.20;99.90;;;;;;2075117;28;20138;-68
2021/12/06 05:07:55;;;;;;;18.15;14.32;;;2.20;99.90;;;;;;2071900;28;20080;-68
2021/12/06 05:08:59;;;;;;;19.88;13.65;;;2.20;99.90;;;;;;2072431;28;20128;-68
2021/12/06 05:10:03;;;;;;;15.15;13.43;;;2.20;99.90;;;;;;2068621;28;20423;-68
2021/12/06 05:11:04;;;;;;;16.80;14.63;;;2.20;99.90;;;;;;2065841;28;20033;-68
2021/12/06 05:12:07;;;;;;;17.63;14.30;;;2.20;99.90;;;;;;2072655;28;20022;-68
2021/12/06 05:13:08;;;;;;;15.75;13.25;;;2.20;99.90;;;;;;2072278;28;20033;-68
2021/12/06 05:14:09;;;;;;;16.48;13.18;;;2.20;99.90;;;;;;2072344;28;20381;-68
2021/12/06 05:15:09;;;;;;;16.17;14.40;;;2.20;99.90;;;;;;2071710;28;20120;-68
2021/12/06 05:16:10;;;;;;;14.00;12.20;;;2.20;99.90;;;;;;2072012;28;20029;-68
2021/12/06 05:17:11;;;;;;;18.30;13.85;;;2.20;99.90;;;;;;2072558;28;20025;-68
2021/12/06 05:18:12;;;;;;;16.48;13.57;;;2.20;99.90;;;;;;2071975;28;20474;-68
2021/12/06 05:19:13;;;;;;;15.00;12.77;;;2.20;99.90;;;;;;2072346;28;20042;-68
2021/12/06 05:20:15;;;;;;;17.15;15.07;;;2.10;99.90;;;;;;2079004;28;20029;-68
2021/12/06 05:21:16;;;;;;;19.63;16.15;;;2.20;99.90;;;;;;2075231;28;20034;-68
2021/12/06 05:22:18;;;;;;;20.00;14.88;;;2.20;99.90;;;;;;2073067;28;20470;-68
2021/12/06 05:23:19;;;;;;;17.55;14.95;;;2.20;99.90;;;;;;2064206;28;20045;-68
2021/12/06 05:24:20;;;;;;;17.15;14.43;;;2.10;99.90;;;;;;2071099;28;20097;-68
2021/12/06 05:25:23;;;;;;;18.65;15.32;;;2.20;99.90;;;;;;2066616;28;20038;-68
2021/12/06 05:26:23;;;;;;;15.52;13.70;;;2.10;99.90;;;;;;2072420;28;20025;-68
2021/12/06 05:27:28;;;;;;;14.77;13.10;;;2.10;99.90;;;;;;2067505;28;20018;-68
2021/12/06 05:28:32;;;;;;;16.88;13.27;;;2.10;99.90;;;;;;2072745;28;20029;-68
2021/12/06 05:29:34;;;;;;;15.30;12.77;;;2.10;99.90;;;;;;2072392;28;20045;-68
2021/12/06 05:30:37;;;;;;;17.45;13.00;;;2.00;99.90;;;;;;2072818;28;20498;-68
2021/12/06 05:31:41;;;;;;;13.93;11.80;;;2.00;99.90;;;;;;2072291;28;20095;-68
2021/12/06 05:32:43;;;;;;;15.48;12.80;;;2.00;99.90;;;;;;2072539;28;20076;-68
2021/12/06 05:33:51;;;;;;;15.73;12.77;;;2.00;99.90;;;;;;2072530;28;20041;-68
2021/12/06 05:35:01;;;;;;;16.58;13.00;;;2.00;99.90;;;;;;2072123;28;20046;-68
2021/12/06 05:36:03;;;;;;;14.70;11.85;;;2.00;99.90;;;;;;2070803;28;20652;-68
2021/12/06 05:37:11;;;;;;;14.90;12.38;;;2.00;99.90;;;;;;2066380;28;20026;-68
2021/12/06 05:38:12;;;;;;;17.00;12.48;;;2.00;99.90;;;;;;2071724;28;20022;-70
2021/12/06 05:39:13;;;;;;;18.40;14.00;;;2.00;99.90;;;;;;2071464;28;20026;-68
2021/12/06 05:40:21;;;;;;;16.67;14.02;;;2.00;99.90;;;;;;2072542;28;20482;-67
2021/12/06 05:41:21;;;;;;;17.27;14.18;;;2.00;99.90;;;;;;2072342;28;20014;-67